createdAt,value
2018-11-14T00:00:17.586Z,3.17
2018-11-14T00:01:21.024Z,2.73
2018-11-14T00:02:24.769Z,1.53
2018-11-14T00:03:28.213Z,2.50
2018-11-14T00:04:31.624Z,2.40
2018-11-14T00:05:35.011Z,5.50
2018-11-14T00:06:38.452Z,2.00
2018-11-14T00:07:42.074Z,3.80
2018-11-14T00:08:45.497Z,1.90
2018-11-14T00:09:48.939Z,2.13
2018-11-14T00:10:52.399Z,2.50
2018-11-14T00:11:55.818Z,4.33
2018-11-14T00:12:59.231Z,2.13
2018-11-14T00:14:02.786Z,3.00
2018-11-14T00:15:08.776Z,2.10
2018-11-14T00:16:12.175Z,4.60
2018-11-14T00:17:15.659Z,3.43
2018-11-14T00:18:19.177Z,1.97
2018-11-14T00:19:22.703Z,3.37
2018-11-14T00:20:26.084Z,1.43
2018-11-14T00:21:29.511Z,2.73
2018-11-14T00:22:32.878Z,4.40
2018-11-14T00:23:36.445Z,1.07
2018-11-14T00:24:39.910Z,1.77
2018-11-14T00:25:43.317Z,5.40
2018-11-14T00:26:46.848Z,1.90
2018-11-14T00:27:50.443Z,2.07
2018-11-14T00:28:53.927Z,1.53
2018-11-14T00:29:57.356Z,11.53
2018-11-14T00:31:00.762Z,1.83
2018-11-14T00:32:04.335Z,1.23
2018-11-14T00:33:07.795Z,1.90
2018-11-14T00:34:11.214Z,2.30
2018-11-14T00:35:16.389Z,10.50
2018-11-14T00:36:19.814Z,4.27
2018-11-14T00:37:23.210Z,5.03
2018-11-14T00:38:26.633Z,4.63
2018-11-14T00:39:30.005Z,3.27
2018-11-14T00:40:33.456Z,1.30
2018-11-14T00:41:37.026Z,1.63
2018-11-14T00:42:41.526Z,2.30
2018-11-14T00:43:44.958Z,4.43
2018-11-14T00:44:48.361Z,1.33
2018-11-14T00:45:51.829Z,4.17
2018-11-14T00:46:55.243Z,2.57
2018-11-14T00:47:58.739Z,2.33
2018-11-14T00:49:02.224Z,2.90
2018-11-14T00:50:06.438Z,1.93
2018-11-14T00:51:09.883Z,2.20
2018-11-14T00:52:13.460Z,6.37
2018-11-14T00:53:16.882Z,1.47
2018-11-14T00:54:20.320Z,3.07
2018-11-14T00:55:23.768Z,9.67
2018-11-14T00:56:27.173Z,2.13
2018-11-14T00:57:30.732Z,2.10
2018-11-14T00:58:34.136Z,4.10
2018-11-14T00:59:37.535Z,2.37
2018-11-14T01:00:40.978Z,3.60
2018-11-14T01:01:44.445Z,3.23
2018-11-14T01:02:48.219Z,1.47
2018-11-14T01:03:51.664Z,1.43
2018-11-14T01:04:55.156Z,1.80
2018-11-14T01:05:58.584Z,1.00
2018-11-14T01:07:02.017Z,1.77
2018-11-14T01:08:05.817Z,1.37
2018-11-14T01:09:11.004Z,1.37
2018-11-14T01:10:16.456Z,6.93
2018-11-14T01:11:19.924Z,2.50
2018-11-14T01:12:23.425Z,2.00
2018-11-14T01:13:26.879Z,1.90
2018-11-14T01:14:30.326Z,1.33
2018-11-14T01:15:33.765Z,1.93
2018-11-14T01:16:37.465Z,3.57
2018-11-14T01:17:41.427Z,3.27
2018-11-14T01:18:44.865Z,1.23
2018-11-14T01:19:48.272Z,1.50
2018-11-14T01:20:51.733Z,4.00
2018-11-14T01:21:55.196Z,3.20
2018-11-14T01:22:58.629Z,2.70
2018-11-14T01:24:02.002Z,3.10
2018-11-14T01:25:06.078Z,1.30
2018-11-14T01:26:09.548Z,1.10
2018-11-14T01:27:13.371Z,2.10
2018-11-14T01:28:16.623Z,1.57
2018-11-14T01:29:20.041Z,1.53
2018-11-14T01:30:24.450Z,5.27
2018-11-14T01:31:28.023Z,2.90
2018-11-14T01:32:31.450Z,1.67
2018-11-14T01:33:34.872Z,2.43
2018-11-14T01:34:38.281Z,4.83
2018-11-14T01:35:41.762Z,1.47
2018-11-14T01:36:45.277Z,2.33
2018-11-14T01:37:48.729Z,5.27
2018-11-14T01:38:52.141Z,3.37
2018-11-14T01:39:55.578Z,3.03
2018-11-14T01:40:59.127Z,2.83
2018-11-14T01:42:02.534Z,1.83
2018-11-14T01:43:05.982Z,3.10
2018-11-14T01:44:09.670Z,5.77
2018-11-14T01:45:13.291Z,3.30
2018-11-14T01:46:16.709Z,4.93
2018-11-14T01:47:20.106Z,6.77
2018-11-14T01:48:23.496Z,6.80
2018-11-14T01:49:27.081Z,1.67
2018-11-14T01:50:30.477Z,1.87
2018-11-14T01:51:34.079Z,3.00
2018-11-14T01:52:37.817Z,5.87
2018-11-14T01:53:41.234Z,2.80
2018-11-14T01:54:44.808Z,2.20
2018-11-14T01:55:48.298Z,3.70
2018-11-14T01:56:51.696Z,2.87
2018-11-14T01:57:55.133Z,4.30
2018-11-14T01:58:59.218Z,3.23
2018-11-14T02:00:02.829Z,3.57
2018-11-14T02:01:06.310Z,1.60
2018-11-14T02:02:09.816Z,1.90
2018-11-14T02:03:13.263Z,4.60
2018-11-14T02:04:16.775Z,1.53
2018-11-14T02:05:20.393Z,1.70
2018-11-14T02:06:23.860Z,5.70
2018-11-14T02:07:27.288Z,3.40
2018-11-14T02:08:30.725Z,6.30
2018-11-14T02:09:34.111Z,2.80
2018-11-14T02:10:37.563Z,2.30
2018-11-14T02:11:40.966Z,7.40
2018-11-14T02:12:44.843Z,2.33
2018-11-14T02:13:48.257Z,2.97
2018-11-14T02:14:51.785Z,3.07
2018-11-14T02:15:55.449Z,3.40
2018-11-14T02:16:58.848Z,4.97
2018-11-14T02:18:02.528Z,1.97
2018-11-14T02:19:06.534Z,2.50
2018-11-14T02:20:10.767Z,2.33
2018-11-14T02:21:14.200Z,4.50
2018-11-14T02:22:17.865Z,4.57
2018-11-14T02:23:21.364Z,3.33
2018-11-14T02:24:24.830Z,2.13
2018-11-14T02:25:28.276Z,1.17
2018-11-14T02:26:31.705Z,2.90
2018-11-14T02:27:35.150Z,2.60
2018-11-14T02:28:38.601Z,3.50
2018-11-14T02:29:42.014Z,3.33
2018-11-14T02:30:45.463Z,5.00
2018-11-14T02:31:48.890Z,1.23
2018-11-14T02:32:52.532Z,3.20
2018-11-14T02:33:56.176Z,2.40
2018-11-14T02:34:59.583Z,5.80
2018-11-14T02:36:03.111Z,2.57
2018-11-14T02:37:06.638Z,6.37
2018-11-14T02:38:10.115Z,3.20
2018-11-14T02:39:13.500Z,4.10
2018-11-14T02:40:18.038Z,3.37
2018-11-14T02:41:21.465Z,1.10
2018-11-14T02:42:24.875Z,1.17
2018-11-14T02:43:28.295Z,1.43
2018-11-14T02:44:31.711Z,5.57
2018-11-14T02:45:35.101Z,2.77
2018-11-14T02:46:38.547Z,1.07
2018-11-14T02:47:42.008Z,2.73
2018-11-14T02:48:45.408Z,3.60
2018-11-14T02:49:48.799Z,2.67
2018-11-14T02:51:03.380Z,7.20
2018-11-14T02:52:06.887Z,5.17
2018-11-14T02:53:10.518Z,2.60
2018-11-14T02:54:13.878Z,2.40
2018-11-14T02:55:17.946Z,1.87
2018-11-14T02:56:21.358Z,6.00
2018-11-14T02:57:25.324Z,4.20
2018-11-14T02:58:28.724Z,4.60
2018-11-14T02:59:32.299Z,3.43
2018-11-14T03:00:35.724Z,2.50
2018-11-14T03:01:39.198Z,3.47
2018-11-14T03:02:43.153Z,1.10
2018-11-14T03:03:46.606Z,1.20
2018-11-14T03:04:50.065Z,3.90
2018-11-14T03:05:53.472Z,1.73
2018-11-14T03:06:56.883Z,2.43
2018-11-14T03:08:00.305Z,1.23
2018-11-14T03:09:04.819Z,1.70
2018-11-14T03:10:10.541Z,5.33
2018-11-14T03:11:14.016Z,3.20
2018-11-14T03:12:17.602Z,4.43
2018-11-14T03:13:20.949Z,1.93
2018-11-14T03:14:24.319Z,1.80
2018-11-14T03:15:27.723Z,4.23
2018-11-14T03:16:31.352Z,3.33
2018-11-14T03:17:34.802Z,2.00
2018-11-14T03:18:38.234Z,5.37
2018-11-14T03:19:41.690Z,4.10
2018-11-14T03:20:45.139Z,10.23
2018-11-14T03:21:48.593Z,2.60
2018-11-14T03:22:52.011Z,2.30
2018-11-14T03:23:55.558Z,3.57
2018-11-14T03:24:58.993Z,3.27
2018-11-14T03:26:02.448Z,4.10
2018-11-14T03:27:06.196Z,4.90
2018-11-14T03:28:09.625Z,2.47
2018-11-14T03:29:13.073Z,2.73
2018-11-14T03:30:17.785Z,0.93
2018-11-14T03:31:21.225Z,1.27
2018-11-14T03:32:24.637Z,2.43
2018-11-14T03:33:28.051Z,3.23
2018-11-14T03:34:31.532Z,1.00
2018-11-14T03:35:40.429Z,2.50
2018-11-14T03:36:43.834Z,1.80
2018-11-14T03:37:47.205Z,3.67
2018-11-14T03:38:50.680Z,3.13
2018-11-14T03:39:54.117Z,1.40
2018-11-14T03:40:57.528Z,4.87
2018-11-14T03:42:00.979Z,5.60
2018-11-14T03:43:04.429Z,2.30
2018-11-14T03:44:07.869Z,3.37
2018-11-14T03:45:12.672Z,1.77
2018-11-14T03:46:16.446Z,1.83
2018-11-14T03:47:19.837Z,1.43
2018-11-14T03:48:23.315Z,2.07
2018-11-14T03:49:26.778Z,5.40
2018-11-14T03:50:30.199Z,3.70
2018-11-14T03:51:33.570Z,3.47
2018-11-14T03:52:37.179Z,1.93
2018-11-14T03:53:40.650Z,2.23
2018-11-14T03:54:44.053Z,1.17
2018-11-14T03:55:47.473Z,1.83
2018-11-14T03:56:50.883Z,1.60
2018-11-14T03:57:54.262Z,3.70
2018-11-14T03:58:57.689Z,3.00
2018-11-14T04:00:01.501Z,1.10
2018-11-14T04:01:05.950Z,4.17
2018-11-14T04:02:09.645Z,2.00
2018-11-14T04:03:13.057Z,1.03
2018-11-14T04:04:16.599Z,3.53
2018-11-14T04:05:20.063Z,2.00
2018-11-14T04:06:23.476Z,1.03
2018-11-14T04:07:26.878Z,2.47
2018-11-14T04:08:30.261Z,1.17
2018-11-14T04:09:33.852Z,1.00
2018-11-14T04:10:37.143Z,1.13
2018-11-14T04:11:40.849Z,3.33
2018-11-14T04:12:44.537Z,1.10
2018-11-14T04:13:47.910Z,2.37
2018-11-14T04:14:51.616Z,1.70
2018-11-14T04:15:55.017Z,5.60
2018-11-14T04:16:58.404Z,2.80
2018-11-14T04:18:01.985Z,11.30
2018-11-14T04:19:06.286Z,2.10
2018-11-14T04:20:12.408Z,1.10
2018-11-14T04:21:15.978Z,6.27
2018-11-14T04:22:19.403Z,7.33
2018-11-14T04:23:22.815Z,2.03
2018-11-14T04:24:26.275Z,1.00
2018-11-14T04:25:29.676Z,1.33
2018-11-14T04:26:33.105Z,4.90
2018-11-14T04:27:36.486Z,2.70
2018-11-14T04:28:39.898Z,0.60
2018-11-14T04:29:43.363Z,2.77
2018-11-14T04:30:47.553Z,2.60
2018-11-14T04:31:50.941Z,3.70
2018-11-14T04:32:54.369Z,1.27
2018-11-14T04:33:57.778Z,1.40
2018-11-14T04:35:01.336Z,2.17
2018-11-14T04:36:04.784Z,1.80
2018-11-14T04:37:08.259Z,1.63
2018-11-14T04:38:11.686Z,1.50
2018-11-14T04:39:15.123Z,1.10
2018-11-14T04:40:21.679Z,2.60
2018-11-14T04:41:25.128Z,0.80
2018-11-14T04:42:28.540Z,2.07
2018-11-14T04:43:32.003Z,5.13
2018-11-14T04:44:35.416Z,1.17
2018-11-14T04:45:38.884Z,1.10
2018-11-14T04:46:42.347Z,1.93
2018-11-14T04:47:45.963Z,1.63
2018-11-14T04:48:49.397Z,0.93
2018-11-14T04:49:52.813Z,3.70
2018-11-14T04:50:56.260Z,3.93
2018-11-14T04:51:59.696Z,1.63
2018-11-14T04:53:03.166Z,1.87
2018-11-14T04:54:06.643Z,2.87
2018-11-14T04:55:12.211Z,1.87
2018-11-14T04:56:15.669Z,0.80
2018-11-14T04:57:19.100Z,2.93
2018-11-14T04:58:22.534Z,4.13
2018-11-14T04:59:26.078Z,1.27
2018-11-14T05:00:29.525Z,0.83
2018-11-14T05:01:32.998Z,0.73
2018-11-14T05:02:36.481Z,1.20
2018-11-14T05:03:39.945Z,0.90
2018-11-14T05:04:43.380Z,1.10
2018-11-14T05:05:46.767Z,1.10
2018-11-14T05:06:50.206Z,1.00
2018-11-14T05:07:53.633Z,1.00
2018-11-14T05:08:57.088Z,1.60
2018-11-14T05:10:00.569Z,1.10
2018-11-14T05:11:04.028Z,1.23
2018-11-14T05:12:07.467Z,1.97
2018-11-14T05:13:10.993Z,2.50
2018-11-14T05:14:14.533Z,0.77
2018-11-14T05:15:19.357Z,0.97
2018-11-14T05:16:23.232Z,2.77
2018-11-14T05:17:26.672Z,4.30
2018-11-14T05:18:30.248Z,6.50
2018-11-14T05:19:33.876Z,1.00
2018-11-14T05:20:37.358Z,9.50
2018-11-14T05:21:40.813Z,2.40
2018-11-14T05:22:44.746Z,3.27
2018-11-14T05:23:48.192Z,1.13
2018-11-14T05:24:51.582Z,7.43
2018-11-14T05:25:55.058Z,6.00
2018-11-14T05:26:58.493Z,1.13
2018-11-14T05:28:01.948Z,2.20
2018-11-14T05:29:05.619Z,15.27
2018-11-14T05:30:11.231Z,1.00
2018-11-14T05:31:14.712Z,5.90
2018-11-14T05:32:18.300Z,14.27
2018-11-14T05:33:21.709Z,0.83
2018-11-14T05:34:25.140Z,1.37
2018-11-14T05:35:28.755Z,1.43
2018-11-14T05:36:32.332Z,2.43
2018-11-14T05:37:36.205Z,2.30
2018-11-14T05:38:39.672Z,3.17
2018-11-14T05:39:43.135Z,5.17
2018-11-14T05:40:46.646Z,4.53
2018-11-14T05:41:50.060Z,8.03
2018-11-14T05:42:53.722Z,1.40
2018-11-14T05:43:57.149Z,1.50
2018-11-14T05:45:00.825Z,1.10
2018-11-14T05:46:04.373Z,6.00
2018-11-14T05:47:08.550Z,1.47
2018-11-14T05:48:13.198Z,13.10
2018-11-14T05:49:16.629Z,2.63
2018-11-14T05:50:21.102Z,0.80
2018-11-14T05:51:24.542Z,1.00
2018-11-14T05:52:27.991Z,5.93
2018-11-14T05:53:31.467Z,2.80
2018-11-14T05:54:34.936Z,1.50
2018-11-14T05:55:38.880Z,4.60
2018-11-14T05:56:42.357Z,7.40
2018-11-14T05:57:45.819Z,4.37
2018-11-14T05:58:49.224Z,4.00
2018-11-14T05:59:52.928Z,2.50
2018-11-14T06:00:56.382Z,1.03
2018-11-14T06:01:59.787Z,6.30
2018-11-14T06:03:04.114Z,4.37
2018-11-14T06:04:08.102Z,8.93
2018-11-14T06:05:11.540Z,2.60
2018-11-14T06:06:14.907Z,2.23
2018-11-14T06:07:18.355Z,4.87
2018-11-14T06:08:21.804Z,4.83
2018-11-14T06:09:25.206Z,2.53
2018-11-14T06:10:28.786Z,6.43
2018-11-14T06:11:32.198Z,1.50
2018-11-14T06:12:35.737Z,2.10
2018-11-14T06:13:39.182Z,2.57
2018-11-14T06:14:42.651Z,1.23
2018-11-14T06:15:46.099Z,2.87
2018-11-14T06:16:49.574Z,2.97
2018-11-14T06:17:54.058Z,3.10
2018-11-14T06:18:57.446Z,3.23
2018-11-14T06:20:00.834Z,1.47
2018-11-14T06:21:04.627Z,3.13
2018-11-14T06:22:08.178Z,2.70
2018-11-14T06:23:11.696Z,1.00
2018-11-14T06:24:15.376Z,5.77
2018-11-14T06:25:28.804Z,1.43
2018-11-14T06:26:32.407Z,4.57
2018-11-14T06:27:35.804Z,4.77
2018-11-14T06:28:39.251Z,1.00
2018-11-14T06:29:42.997Z,1.43
2018-11-14T06:30:46.569Z,4.47
2018-11-14T06:31:49.972Z,4.83
2018-11-14T06:32:53.969Z,2.80
2018-11-14T06:33:57.348Z,1.10
2018-11-14T06:35:00.835Z,1.80
2018-11-14T06:36:04.308Z,1.10
2018-11-14T06:37:07.739Z,2.10
2018-11-14T06:38:11.269Z,2.97
2018-11-14T06:39:14.716Z,4.37
2018-11-14T06:40:18.396Z,1.30
2018-11-14T06:41:21.892Z,1.23
2018-11-14T06:42:25.431Z,4.33
2018-11-14T06:43:28.843Z,3.43
2018-11-14T06:44:32.315Z,3.23
2018-11-14T06:45:36.308Z,1.70
2018-11-14T06:46:40.103Z,1.13
2018-11-14T06:47:44.788Z,5.20
2018-11-14T06:48:48.227Z,2.80
2018-11-14T06:49:52.586Z,1.63
2018-11-14T06:50:56.077Z,3.00
2018-11-14T06:51:59.519Z,1.93
2018-11-14T06:53:04.342Z,3.50
2018-11-14T06:54:07.830Z,4.10
2018-11-14T06:55:13.135Z,6.30
2018-11-14T06:56:16.615Z,2.20
2018-11-14T06:57:20.075Z,4.13
2018-11-14T06:58:23.488Z,3.23
2018-11-14T06:59:27.089Z,4.23
2018-11-14T07:00:31.647Z,5.13
2018-11-14T07:01:35.223Z,4.97
2018-11-14T07:02:38.664Z,4.17
2018-11-14T07:03:42.175Z,3.60
2018-11-14T07:04:45.652Z,7.33
2018-11-14T07:05:49.305Z,5.07
2018-11-14T07:06:52.581Z,6.03
2018-11-14T07:07:56.154Z,4.57
2018-11-14T07:08:59.552Z,5.60
2018-11-14T07:10:03.123Z,5.67
2018-11-14T07:11:06.664Z,13.53
2018-11-14T07:12:10.193Z,5.60
2018-11-14T07:13:14.045Z,4.50
2018-11-14T07:14:17.456Z,4.37
2018-11-14T07:15:22.376Z,3.47
2018-11-14T07:16:25.954Z,7.20
2018-11-14T07:17:29.381Z,11.30
2018-11-14T07:18:32.783Z,8.73
2018-11-14T07:19:36.898Z,12.80
2018-11-14T07:20:41.836Z,18.30
2018-11-14T07:21:45.323Z,21.50
2018-11-14T07:22:48.780Z,31.23
2018-11-14T07:23:52.267Z,23.70
2018-11-14T07:24:55.633Z,21.23
2018-11-14T07:25:59.147Z,22.50
2018-11-14T07:27:02.599Z,15.77
2018-11-14T07:28:06.069Z,16.17
2018-11-14T07:29:10.263Z,21.60
2018-11-14T07:30:15.948Z,16.00
2018-11-14T07:31:19.840Z,29.63
2018-11-14T07:32:23.257Z,17.90
2018-11-14T07:33:26.638Z,21.30
2018-11-14T07:34:30.106Z,19.40
2018-11-14T07:35:33.522Z,13.37
2018-11-14T07:36:36.969Z,23.63
2018-11-14T07:37:40.821Z,16.53
2018-11-14T07:38:46.539Z,13.00
2018-11-14T07:39:49.966Z,12.87
2018-11-14T07:40:53.411Z,19.57
2018-11-14T07:41:56.830Z,20.40
2018-11-14T07:43:00.413Z,13.20
2018-11-14T07:44:03.856Z,10.77
2018-11-14T07:45:09.946Z,15.13
2018-11-14T07:46:14.421Z,11.80
2018-11-14T07:47:17.827Z,15.70
2018-11-14T07:48:21.214Z,16.13
2018-11-14T07:49:24.663Z,14.17
2018-11-14T07:50:28.202Z,7.90
2018-11-14T07:51:31.694Z,13.23
2018-11-14T07:52:35.101Z,17.20
2018-11-14T07:53:38.702Z,16.40
2018-11-14T07:54:42.247Z,12.33
2018-11-14T07:55:45.633Z,15.23
2018-11-14T07:56:49.071Z,19.93
2018-11-14T07:57:52.661Z,20.90
2018-11-14T07:58:56.072Z,10.27
2018-11-14T07:59:59.454Z,23.50
2018-11-14T08:01:02.895Z,17.80
2018-11-14T08:02:07.580Z,10.33
2018-11-14T08:03:11.448Z,17.23
2018-11-14T08:04:14.930Z,16.13
2018-11-14T08:05:18.349Z,8.87
2018-11-14T08:06:21.774Z,13.70
2018-11-14T08:07:25.232Z,15.03
2018-11-14T08:08:28.740Z,11.53
2018-11-14T08:09:32.148Z,11.27
2018-11-14T08:10:35.556Z,10.37
2018-11-14T08:13:33.762Z,10.20
2018-11-14T08:14:37.215Z,9.83
2018-11-14T08:15:41.015Z,8.80
2018-11-14T08:16:44.461Z,14.27
2018-11-14T08:17:47.857Z,8.80
2018-11-14T08:18:51.273Z,12.30
2018-11-14T08:19:54.642Z,6.87
2018-11-14T08:20:58.714Z,7.80
2018-11-14T08:22:02.152Z,6.83
2018-11-14T08:23:05.964Z,10.00
2018-11-14T08:24:09.432Z,7.70
2018-11-14T08:25:13.494Z,12.07
2018-11-14T08:26:16.860Z,10.40
2018-11-14T08:27:20.289Z,12.03
2018-11-14T08:28:23.729Z,14.20
2018-11-14T08:29:27.132Z,9.93
2018-11-14T08:30:30.594Z,7.30
2018-11-14T08:31:34.053Z,10.00
2018-11-14T08:32:37.988Z,8.70
2018-11-14T08:33:41.422Z,6.43
2018-11-14T08:34:45.088Z,7.00
2018-11-14T08:35:48.550Z,9.60
2018-11-14T08:36:51.932Z,7.83
2018-11-14T08:37:55.317Z,7.43
2018-11-14T08:38:58.729Z,7.83
2018-11-14T08:40:02.159Z,8.43
2018-11-14T08:41:05.726Z,8.47
2018-11-14T08:42:09.154Z,9.53
2018-11-14T08:43:12.570Z,7.97
2018-11-14T08:44:16.027Z,9.47
2018-11-14T08:45:19.403Z,7.60
2018-11-14T08:46:22.832Z,8.20
2018-11-14T08:47:26.294Z,11.60
2018-11-14T08:48:29.787Z,11.37
2018-11-14T08:49:33.203Z,4.90
2018-11-14T08:50:36.607Z,8.70
2018-11-14T08:51:40.076Z,11.97
2018-11-14T08:52:43.765Z,6.83
2018-11-14T08:53:47.242Z,7.20
2018-11-14T08:54:50.621Z,8.67
2018-11-14T08:55:54.040Z,12.23
2018-11-14T08:56:57.507Z,9.37
2018-11-14T08:58:01.015Z,7.93
2018-11-14T08:59:04.461Z,6.80
2018-11-14T09:00:11.932Z,6.00
2018-11-14T09:01:15.400Z,4.30
2018-11-14T09:02:18.823Z,5.60
2018-11-14T09:03:22.261Z,11.67
2018-11-14T09:04:25.654Z,5.23
2018-11-14T09:05:29.091Z,4.20
2018-11-14T09:06:32.518Z,6.80
2018-11-14T09:07:36.162Z,5.83
2018-11-14T09:08:39.594Z,9.17
2018-11-14T09:09:43.000Z,7.17
2018-11-14T09:10:46.609Z,11.30
2018-11-14T09:11:50.018Z,8.83
2018-11-14T09:12:53.422Z,7.10
2018-11-14T09:13:56.841Z,6.33
2018-11-14T09:15:00.316Z,5.23
2018-11-14T09:16:03.743Z,4.97
2018-11-14T09:17:07.263Z,5.17
2018-11-14T09:18:10.842Z,4.53
2018-11-14T09:19:14.273Z,6.90
2018-11-14T09:20:19.261Z,8.73
2018-11-14T09:21:22.655Z,5.60
2018-11-14T09:22:26.153Z,7.63
2018-11-14T09:23:29.565Z,5.37
2018-11-14T09:24:33.010Z,7.33
2018-11-14T09:25:36.926Z,6.63
2018-11-14T09:26:40.467Z,7.93
2018-11-14T09:27:44.860Z,6.63
2018-11-14T09:28:48.299Z,4.83
2018-11-14T09:29:51.700Z,4.93
2018-11-14T09:30:55.093Z,4.97
2018-11-14T09:31:58.594Z,4.20
2018-11-14T09:33:02.071Z,4.73
2018-11-14T09:34:05.453Z,4.13
2018-11-14T09:35:10.204Z,4.83
2018-11-14T09:36:13.644Z,7.03
2018-11-14T09:37:17.061Z,4.37
2018-11-14T09:38:20.481Z,6.53
2018-11-14T09:39:23.920Z,3.23
2018-11-14T09:40:28.344Z,9.60
2018-11-14T09:41:31.951Z,4.00
2018-11-14T09:42:35.712Z,5.63
2018-11-14T09:43:39.151Z,3.67
2018-11-14T09:44:42.555Z,3.90
2018-11-14T09:45:46.024Z,4.10
2018-11-14T09:46:49.452Z,6.53
2018-11-14T09:47:52.901Z,6.60
2018-11-14T09:48:56.285Z,5.10
2018-11-14T09:49:59.722Z,4.43
2018-11-14T09:51:03.124Z,3.03
2018-11-14T09:52:06.527Z,9.13
2018-11-14T09:53:10.027Z,5.63
2018-11-14T09:54:13.476Z,4.70
2018-11-14T09:55:16.908Z,5.70
2018-11-14T09:56:20.354Z,5.50
2018-11-14T09:57:23.822Z,7.70
2018-11-14T09:58:27.219Z,2.97
2018-11-14T09:59:30.600Z,6.27
2018-11-14T10:00:34.829Z,4.40
2018-11-14T10:01:38.301Z,4.00
2018-11-14T10:02:42.330Z,4.87
2018-11-14T10:03:45.749Z,2.23
2018-11-14T10:04:49.157Z,4.13
2018-11-14T10:05:52.627Z,6.97
2018-11-14T10:06:56.092Z,6.60
2018-11-14T10:07:59.611Z,4.77
2018-11-14T10:09:03.239Z,4.63
2018-11-14T10:10:07.962Z,5.77
2018-11-14T10:11:11.406Z,3.80
2018-11-14T10:12:15.119Z,4.33
2018-11-14T10:13:18.600Z,3.47
2018-11-14T10:14:22.036Z,3.83
2018-11-14T10:15:25.498Z,4.40
2018-11-14T10:16:28.956Z,3.77
2018-11-14T10:17:32.370Z,2.73
2018-11-14T10:18:35.770Z,3.33
2018-11-14T10:19:39.241Z,6.97
2018-11-14T10:20:42.695Z,4.47
2018-11-14T10:21:46.182Z,3.53
2018-11-14T10:22:49.647Z,3.97
2018-11-14T10:23:53.054Z,4.73
2018-11-14T10:24:56.503Z,2.80
2018-11-14T10:25:59.930Z,2.37
2018-11-14T10:27:03.578Z,3.53
2018-11-14T10:28:07.011Z,6.27
2018-11-14T10:29:11.048Z,4.50
2018-11-14T10:30:17.756Z,5.60
2018-11-14T10:31:21.176Z,3.97
2018-11-14T10:32:24.606Z,3.43
2018-11-14T10:33:28.052Z,3.20
2018-11-14T10:34:31.489Z,3.57
2018-11-14T10:35:34.925Z,4.20
2018-11-14T10:36:38.455Z,5.07
2018-11-14T10:37:42.197Z,3.00
2018-11-14T10:38:45.788Z,3.83
2018-11-14T10:39:49.450Z,4.80
2018-11-14T10:40:52.925Z,3.10
2018-11-14T10:41:56.343Z,2.57
2018-11-14T10:42:59.808Z,4.00
2018-11-14T10:44:03.202Z,2.80
2018-11-14T10:45:08.446Z,2.57
2018-11-14T10:46:11.955Z,2.50
2018-11-14T10:47:15.406Z,2.93
2018-11-14T10:48:18.891Z,2.30
2018-11-14T10:49:22.331Z,4.57
2018-11-14T10:50:26.942Z,5.43
2018-11-14T10:51:30.676Z,1.70
2018-11-14T10:52:34.122Z,2.07
2018-11-14T10:53:37.562Z,5.00
2018-11-14T10:54:41.143Z,3.07
2018-11-14T10:55:44.626Z,2.87
2018-11-14T10:56:48.083Z,2.53
2018-11-14T10:57:52.040Z,3.33
2018-11-14T10:58:55.711Z,1.43
2018-11-14T10:59:59.095Z,1.70
2018-11-14T11:01:07.832Z,1.70
2018-11-14T11:02:16.726Z,2.87
2018-11-14T11:03:25.700Z,2.20
2018-11-14T11:04:34.348Z,3.73
2018-11-14T11:05:43.163Z,3.13
2018-11-14T11:06:51.723Z,2.10
2018-11-14T11:08:00.613Z,2.60
2018-11-14T11:09:12.532Z,2.07
2018-11-14T11:10:21.055Z,3.07
2018-11-14T11:11:29.732Z,2.17
2018-11-14T11:12:38.415Z,4.07
2018-11-14T11:13:49.002Z,2.73
2018-11-14T11:14:57.698Z,3.10
2018-11-14T11:16:06.436Z,2.40
2018-11-14T11:17:15.094Z,3.73
2018-11-14T11:18:19.471Z,4.33
2018-11-14T11:19:25.208Z,3.87
2018-11-14T11:20:28.729Z,2.30
2018-11-14T11:21:32.130Z,2.47
2018-11-14T11:22:35.540Z,3.83
2018-11-14T11:23:41.118Z,1.40
2018-11-14T11:24:44.632Z,2.30
2018-11-14T11:25:48.273Z,4.20
2018-11-14T11:26:51.729Z,2.27
2018-11-14T11:27:55.243Z,3.40
2018-11-14T11:28:58.668Z,2.03
2018-11-14T11:30:02.154Z,2.87
2018-11-14T11:31:05.810Z,1.60
2018-11-14T11:32:09.345Z,2.17
2018-11-14T11:33:12.761Z,3.80
2018-11-14T11:34:16.204Z,2.30
2018-11-14T11:35:19.683Z,3.77
2018-11-14T11:36:23.111Z,2.50
2018-11-14T11:37:26.659Z,2.50
2018-11-14T11:38:30.091Z,4.43
2018-11-14T11:39:33.511Z,3.00
2018-11-14T11:40:37.053Z,1.87
2018-11-14T11:41:41.105Z,2.53
2018-11-14T11:42:44.518Z,1.80
2018-11-14T11:43:47.948Z,2.77
2018-11-14T11:44:51.449Z,3.10
2018-11-14T11:45:53.823Z,1.80
2018-11-14T11:46:57.336Z,2.83
2018-11-14T11:48:00.740Z,1.40
2018-11-14T11:49:04.175Z,3.70
2018-11-14T11:50:07.907Z,2.53
2018-11-14T11:51:11.388Z,2.60
2018-11-14T11:52:14.957Z,2.63
2018-11-14T11:53:18.391Z,3.10
2018-11-14T11:54:21.807Z,2.70
2018-11-14T11:55:25.192Z,1.57
2018-11-14T11:56:28.665Z,2.03
2018-11-14T11:57:32.536Z,2.83
2018-11-14T11:58:35.920Z,1.67
2018-11-14T11:59:39.383Z,1.50
2018-11-14T12:00:42.951Z,2.97
2018-11-14T12:01:46.254Z,1.63
2018-11-14T12:02:49.708Z,2.83
2018-11-14T12:03:53.098Z,3.00
2018-11-14T12:04:56.558Z,1.87
2018-11-14T12:06:00.135Z,1.83
2018-11-14T12:07:03.490Z,2.53
2018-11-14T12:08:07.009Z,2.30
2018-11-14T12:09:11.827Z,1.90
2018-11-14T12:10:15.793Z,1.50
2018-11-14T12:11:19.254Z,3.37
2018-11-14T12:12:22.681Z,2.23
2018-11-14T12:13:26.163Z,1.47
2018-11-14T12:14:29.556Z,2.47
2018-11-14T12:15:32.988Z,3.13
2018-11-14T12:16:36.413Z,1.47
2018-11-14T12:17:40.580Z,2.80
2018-11-14T12:18:44.018Z,3.87
2018-11-14T12:19:47.415Z,3.03
2018-11-14T12:20:50.869Z,1.97
2018-11-14T12:21:54.284Z,1.60
2018-11-14T12:22:57.860Z,1.93
2018-11-14T12:24:01.553Z,2.37
2018-11-14T12:25:05.036Z,1.80
2018-11-14T12:26:08.461Z,3.33
2018-11-14T12:27:11.948Z,2.43
2018-11-14T12:28:15.307Z,1.10
2018-11-14T12:29:18.717Z,1.30
2018-11-14T12:30:22.224Z,2.27
2018-11-14T12:31:25.607Z,1.90
2018-11-14T12:32:29.009Z,4.10
2018-11-14T12:33:32.389Z,1.70
2018-11-14T12:34:35.849Z,1.40
2018-11-14T12:35:39.352Z,2.37
2018-11-14T12:36:42.737Z,3.60
2018-11-14T12:37:45.151Z,4.50
2018-11-14T12:38:48.653Z,3.40
2018-11-14T12:39:52.069Z,2.20
2018-11-14T12:40:55.486Z,1.93
2018-11-14T12:41:59.030Z,2.20
2018-11-14T12:43:02.424Z,1.30
2018-11-14T12:44:05.860Z,2.53
2018-11-14T12:45:11.845Z,1.87
2018-11-14T12:46:15.541Z,2.13
2018-11-14T12:47:18.921Z,2.00
2018-11-14T12:48:22.374Z,3.23
2018-11-14T12:49:25.817Z,2.47
2018-11-14T12:50:29.284Z,1.23
2018-11-14T12:51:32.760Z,1.80
2018-11-14T12:52:36.502Z,2.60
2018-11-14T12:53:39.950Z,1.90
2018-11-14T12:54:43.369Z,2.30
2018-11-14T12:55:46.742Z,2.03
2018-11-14T12:56:50.129Z,2.13
2018-11-14T12:57:53.612Z,1.73
2018-11-14T12:58:57.040Z,1.43
2018-11-14T13:00:00.488Z,1.83
2018-11-14T13:01:03.874Z,1.30
2018-11-14T13:02:07.329Z,1.00
2018-11-14T13:03:10.860Z,1.30
2018-11-14T13:04:14.379Z,1.37
2018-11-14T13:05:17.797Z,1.57
2018-11-14T13:06:21.257Z,3.50
2018-11-14T13:07:24.694Z,2.10
2018-11-14T13:08:28.197Z,1.33
2018-11-14T13:09:31.573Z,2.70
2018-11-14T13:10:35.006Z,1.50
2018-11-14T13:11:38.703Z,1.57
2018-11-14T13:12:42.652Z,1.67
2018-11-14T13:13:47.805Z,2.43
2018-11-14T13:14:51.212Z,1.53
2018-11-14T13:15:54.617Z,1.40
2018-11-14T13:16:58.044Z,1.60
2018-11-14T13:18:01.468Z,2.00
2018-11-14T13:19:05.280Z,2.00
2018-11-14T13:20:10.592Z,1.57
2018-11-14T13:21:14.319Z,1.70
2018-11-14T13:22:17.946Z,2.13
2018-11-14T13:23:21.367Z,1.53
2018-11-14T13:24:24.812Z,2.00
2018-11-14T13:25:28.284Z,1.30
2018-11-14T13:26:31.724Z,2.13
2018-11-14T13:27:35.303Z,1.30
2018-11-14T13:28:39.113Z,1.40
2018-11-14T13:29:42.637Z,1.87
2018-11-14T13:30:46.055Z,1.70
2018-11-14T13:31:49.438Z,1.43
2018-11-14T13:32:53.557Z,3.03
2018-11-14T13:33:57.061Z,2.13
2018-11-14T13:35:00.553Z,1.67
2018-11-14T13:36:03.978Z,1.67
2018-11-14T13:37:07.392Z,1.90
2018-11-14T13:38:10.930Z,1.83
2018-11-14T13:39:14.388Z,1.43
2018-11-14T13:40:17.814Z,1.43
2018-11-14T13:41:21.221Z,2.43
2018-11-14T13:42:24.648Z,1.63
2018-11-14T13:43:28.065Z,1.03
2018-11-14T13:44:31.450Z,1.40
2018-11-14T13:45:34.861Z,1.60
2018-11-14T13:46:38.269Z,1.30
2018-11-14T13:47:42.076Z,1.53
2018-11-14T13:48:45.489Z,1.27
2018-11-14T13:49:49.069Z,2.40
2018-11-14T13:50:52.407Z,1.47
2018-11-14T13:51:55.775Z,1.70
2018-11-14T13:52:59.181Z,1.20
2018-11-14T13:54:02.580Z,1.63
2018-11-14T13:55:07.346Z,2.13
2018-11-14T13:56:10.829Z,1.20
2018-11-14T13:57:14.254Z,1.73
2018-11-14T13:58:17.675Z,1.70
2018-11-14T13:59:21.077Z,2.47
2018-11-14T14:00:24.528Z,1.30
2018-11-14T14:01:28.094Z,1.20
2018-11-14T14:02:31.473Z,1.50
2018-11-14T14:03:34.865Z,1.47
2018-11-14T14:04:38.254Z,1.20
2018-11-14T14:05:41.753Z,2.30
2018-11-14T14:06:45.197Z,1.63
2018-11-14T14:07:48.613Z,1.30